Time;durP1;ratioP1;P1;durP2;ratioP2;P2;SDS_P1;SDS_P2;PMS_P1;PMS_P2;Temp;Humidity;BMP_temperature;BMP_pressure;BME280_temperature;BME280_humidity;BME280_pressure;Samples;Min_cycle;Max_cycle;Signal;HPM_P1;HPM_P2
2024/04/16 00:00:02;;;;;;;0.20;0.10;;;;;;;;;;5464068;26;20696;-79
2024/04/16 00:02:30;;;;;;;0.20;0.10;;;;;;;;;;5455450;26;20457;-79
2024/04/16 00:04:58;;;;;;;0.20;0.10;;;;;;;;;;5459681;26;20454;-80
2024/04/16 00:07:24;;;;;;;0.20;0.03;;;;;;;;;;5453524;26;20013;-77
2024/04/16 00:09:50;;;;;;;0.20;0.10;;;;;;;;;;5455787;26;20462;-78
2024/04/16 00:12:17;;;;;;;0.20;0.00;;;;;;;;;;5454697;26;20486;-80
2024/04/16 00:14:43;;;;;;;0.20;0.10;;;;;;;;;;5460188;26;19995;-81
2024/04/16 00:17:09;;;;;;;0.20;0.10;;;;;;;;;;5458607;26;20617;-79
2024/04/16 00:19:35;;;;;;;0.20;0.10;;;;;;;;;;5457109;26;20021;-79
2024/04/16 00:22:21;;;;;;;0.20;0.10;;;;;;;;;;5436226;26;20015;-79
2024/04/16 00:24:47;;;;;;;0.20;0.10;;;;;;;;;;5457997;26;23016;-80
2024/04/16 00:27:13;;;;;;;0.20;0.10;;;;;;;;;;5448708;26;19995;-78
2024/04/16 00:29:39;;;;;;;0.20;0.10;;;;;;;;;;5457158;26;20012;-80
2024/04/16 00:32:06;;;;;;;0.20;0.10;;;;;;;;;;5460427;26;20290;-79
2024/04/16 00:34:32;;;;;;;0.20;0.00;;;;;;;;;;5454134;26;20047;-82
2024/04/16 00:36:58;;;;;;;0.20;0.10;;;;;;;;;;5454580;26;20095;-81
2024/04/16 00:39:24;;;;;;;0.20;0.10;;;;;;;;;;5455427;26;20009;-80
2024/04/16 00:41:50;;;;;;;0.20;0.00;;;;;;;;;;5462092;26;19995;-79
2024/04/16 00:44:16;;;;;;;0.20;0.10;;;;;;;;;;5456531;26;20002;-78
2024/04/16 00:46:42;;;;;;;0.20;0.10;;;;;;;;;;5461632;26;20010;-77
2024/04/16 00:49:09;;;;;;;0.20;0.00;;;;;;;;;;5457103;26;20312;-79
2024/04/16 00:51:35;;;;;;;0.20;0.10;;;;;;;;;;5457958;26;20002;-78
2024/04/16 00:54:02;;;;;;;0.20;0.08;;;;;;;;;;5459070;26;20009;-83
2024/04/16 00:56:29;;;;;;;0.20;0.10;;;;;;;;;;5457916;26;20462;-79
2024/04/16 00:59:08;;;;;;;0.20;0.10;;;;;;;;;;5461936;26;20067;-79
2024/04/16 01:01:37;;;;;;;0.20;0.10;;;;;;;;;;5465201;26;20083;-79
2024/04/16 01:04:03;;;;;;;0.20;0.10;;;;;;;;;;5454776;26;20035;-78
2024/04/16 01:06:29;;;;;;;0.20;0.10;;;;;;;;;;5457559;26;20002;-76
2024/04/16 01:08:55;;;;;;;0.20;0.10;;;;;;;;;;5454412;26;20052;-78
2024/04/16 01:11:22;;;;;;;0.20;0.20;;;;;;;;;;5457474;26;20458;-79
2024/04/16 01:13:48;;;;;;;0.20;0.10;;;;;;;;;;5454377;26;19999;-79
2024/04/16 01:16:14;;;;;;;0.20;0.10;;;;;;;;;;5458538;26;20058;-78
2024/04/16 01:18:40;;;;;;;0.20;0.10;;;;;;;;;;5456641;26;19995;-79
2024/04/16 01:21:06;;;;;;;0.20;0.08;;;;;;;;;;5458851;26;20018;-79
2024/04/16 01:23:32;;;;;;;0.20;0.10;;;;;;;;;;5456011;26;19995;-79
2024/04/16 01:25:59;;;;;;;0.20;0.10;;;;;;;;;;5462861;26;20002;-79
2024/04/16 01:28:25;;;;;;;0.20;0.00;;;;;;;;;;5456217;26;19995;-79
2024/04/16 01:30:51;;;;;;;0.20;0.00;;;;;;;;;;5456627;26;19994;-80
2024/04/16 01:33:17;;;;;;;0.20;0.10;;;;;;;;;;5459443;26;20006;-81
2024/04/16 01:35:43;;;;;;;0.50;0.50;;;;;;;;;;5459200;26;20210;-78
2024/04/16 01:38:09;;;;;;;0.20;0.10;;;;;;;;;;5460028;26;20477;-80
2024/04/16 01:40:35;;;;;;;0.20;0.10;;;;;;;;;;5462646;26;20021;-81
2024/04/16 01:43:01;;;;;;;0.20;0.10;;;;;;;;;;5464606;26;20063;-79
2024/04/16 01:45:27;;;;;;;0.20;0.10;;;;;;;;;;5460425;26;20453;-79
2024/04/16 01:47:54;;;;;;;0.20;0.10;;;;;;;;;;5459990;26;20723;-80
2024/04/16 01:50:20;;;;;;;0.20;0.10;;;;;;;;;;5454288;26;20003;-80
2024/04/16 01:52:46;;;;;;;0.20;0.10;;;;;;;;;;5465183;26;19995;-79
2024/04/16 01:55:12;;;;;;;0.20;0.00;;;;;;;;;;5459993;26;19994;-81
2024/04/16 01:57:39;;;;;;;0.20;0.10;;;;;;;;;;5455203;26;20018;-79
2024/04/16 02:00:06;;;;;;;0.20;0.00;;;;;;;;;;5459599;26;19994;-79
2024/04/16 02:02:35;;;;;;;0.20;0.05;;;;;;;;;;5457362;26;20014;-81
2024/04/16 02:05:01;;;;;;;0.20;0.10;;;;;;;;;;5461109;26;19998;-80
2024/04/16 02:07:31;;;;;;;0.20;0.10;;;;;;;;;;5457693;26;20013;-79
2024/04/16 02:09:58;;;;;;;0.20;0.10;;;;;;;;;;5454362;26;19994;-79
2024/04/16 02:12:24;;;;;;;0.20;0.10;;;;;;;;;;5459931;26;20450;-80
2024/04/16 02:14:50;;;;;;;0.20;0.10;;;;;;;;;;5461247;26;20005;-79
2024/04/16 02:17:16;;;;;;;0.20;0.00;;;;;;;;;;5456737;26;20017;-80
2024/04/16 02:19:43;;;;;;;0.20;0.10;;;;;;;;;;5454675;26;20017;-79
2024/04/16 02:22:09;;;;;;;0.20;0.00;;;;;;;;;;5463608;26;20435;-78
2024/04/16 02:24:35;;;;;;;0.43;0.25;;;;;;;;;;5454128;26;20024;-79
2024/04/16 02:27:01;;;;;;;0.20;0.10;;;;;;;;;;5458062;26;20063;-80
2024/04/16 02:29:28;;;;;;;0.20;0.10;;;;;;;;;;5455672;26;20038;-79
2024/04/16 02:31:54;;;;;;;0.20;0.10;;;;;;;;;;5459305;26;20002;-79
2024/04/16 02:34:20;;;;;;;0.20;0.10;;;;;;;;;;5460274;26;19995;-81
2024/04/16 02:36:46;;;;;;;0.20;0.10;;;;;;;;;;5467556;26;20070;-81
2024/04/16 02:39:13;;;;;;;0.20;0.10;;;;;;;;;;5458650;26;20011;-81
2024/04/16 02:41:39;;;;;;;0.20;0.10;;;;;;;;;;5457093;26;20011;-80
2024/04/16 02:44:06;;;;;;;0.20;0.10;;;;;;;;;;5458414;26;20007;-81
2024/04/16 02:46:32;;;;;;;0.20;0.10;;;;;;;;;;5463345;26;20010;-81
2024/04/16 02:48:58;;;;;;;0.20;0.00;;;;;;;;;;5457500;26;20434;-80
2024/04/16 02:51:25;;;;;;;0.20;0.10;;;;;;;;;;5455581;26;20013;-79
2024/04/16 02:53:51;;;;;;;0.20;0.10;;;;;;;;;;5464752;26;19999;-81
2024/04/16 02:56:17;;;;;;;0.20;0.10;;;;;;;;;;5470210;26;20002;-81
2024/04/16 02:58:44;;;;;;;0.20;0.10;;;;;;;;;;5454919;26;20012;-78
2024/04/16 03:01:10;;;;;;;0.20;0.10;;;;;;;;;;5460423;26;20006;-79
2024/04/16 03:03:37;;;;;;;0.20;0.10;;;;;;;;;;5463384;26;20063;-80
2024/04/16 03:06:04;;;;;;;0.20;0.10;;;;;;;;;;5470762;26;20079;-78
2024/04/16 03:08:30;;;;;;;0.20;0.10;;;;;;;;;;5462428;26;20079;-79
2024/04/16 03:11:17;;;;;;;0.20;0.10;;;;;;;;;;5460496;26;20403;-77
2024/04/16 03:13:44;;;;;;;0.20;0.00;;;;;;;;;;5454890;26;19999;-77
2024/04/16 03:16:13;;;;;;;0.20;0.10;;;;;;;;;;5463449;26;20001;-81
2024/04/16 03:18:39;;;;;;;0.52;0.52;;;;;;;;;;5458811;26;20017;-80
2024/04/16 03:21:05;;;;;;;0.20;0.10;;;;;;;;;;5464906;26;19994;-80
2024/04/16 03:23:31;;;;;;;0.20;0.10;;;;;;;;;;5456990;26;20351;-80
2024/04/16 03:25:57;;;;;;;0.20;0.10;;;;;;;;;;5457078;26;20010;-80
2024/04/16 03:28:23;;;;;;;0.20;0.10;;;;;;;;;;5463979;26;19998;-80
2024/04/16 03:30:50;;;;;;;0.20;0.00;;;;;;;;;;5461940;26;20006;-79
2024/04/16 03:33:17;;;;;;;0.20;0.10;;;;;;;;;;5460791;26;20002;-80
2024/04/16 03:36:03;;;;;;;0.20;0.00;;;;;;;;;;5456737;26;20006;-79
2024/04/16 03:38:29;;;;;;;0.20;0.10;;;;;;;;;;5461887;26;20515;-80
2024/04/16 03:41:00;;;;;;;0.20;0.10;;;;;;;;;;5455380;26;20364;-79
2024/04/16 03:43:31;;;;;;;0.20;0.10;;;;;;;;;;5457183;26;20063;-79
2024/04/16 03:46:02;;;;;;;0.20;0.00;;;;;;;;;;5459704;26;20053;-80
2024/04/16 03:48:28;;;;;;;0.20;0.10;;;;;;;;;;5459620;26;20463;-81
2024/04/16 03:50:54;;;;;;;0.20;0.00;;;;;;;;;;5471978;26;20042;-82
2024/04/16 03:53:21;;;;;;;0.20;0.10;;;;;;;;;;5476193;26;20009;-79
2024/04/16 03:55:47;;;;;;;0.20;0.10;;;;;;;;;;5456400;26;19998;-81
2024/04/16 03:58:13;;;;;;;0.20;0.10;;;;;;;;;;5466013;26;19994;-79
2024/04/16 04:03:26;;;;;;;0.20;0.00;;;;;;;;;;5459366;26;20006;-80
2024/04/16 04:05:52;;;;;;;0.20;0.10;;;;;;;;;;5466445;26;20010;-82
2024/04/16 04:08:19;;;;;;;0.20;0.10;;;;;;;;;;5467361;26;20461;-81
2024/04/16 04:10:45;;;;;;;0.20;0.10;;;;;;;;;;5453931;26;20003;-80
2024/04/16 04:13:11;;;;;;;0.20;0.10;;;;;;;;;;5461246;26;20029;-79
2024/04/16 04:15:38;;;;;;;0.20;0.10;;;;;;;;;;5460021;26;19998;-82
2024/04/16 04:18:04;;;;;;;0.20;0.08;;;;;;;;;;5466402;26;20013;-81
2024/04/16 04:20:30;;;;;;;0.20;0.10;;;;;;;;;;5449145;26;19998;-80
2024/04/16 04:22:56;;;;;;;0.20;0.00;;;;;;;;;;5452118;26;20840;-84
2024/04/16 04:25:22;;;;;;;0.20;0.10;;;;;;;;;;5459420;26;19994;-83
2024/04/16 04:27:49;;;;;;;0.20;0.10;;;;;;;;;;5463985;26;19994;-78
2024/04/16 04:30:15;;;;;;;0.20;0.00;;;;;;;;;;5455657;26;20070;-82
2024/04/16 04:32:41;;;;;;;0.20;0.10;;;;;;;;;;5458341;26;20343;-80
2024/04/16 04:35:07;;;;;;;0.20;0.08;;;;;;;;;;5452582;26;20002;-81
2024/04/16 04:37:33;;;;;;;0.20;0.10;;;;;;;;;;5450058;26;20038;-81
2024/04/16 04:39:59;;;;;;;0.20;0.10;;;;;;;;;;5448785;26;20021;-82
2024/04/16 04:42:28;;;;;;;0.20;0.10;;;;;;;;;;5448626;26;20039;-81
2024/04/16 04:44:54;;;;;;;0.20;0.10;;;;;;;;;;5453595;26;20001;-78
2024/04/16 04:47:21;;;;;;;0.20;0.10;;;;;;;;;;5451340;26;20004;-80
2024/04/16 04:49:47;;;;;;;0.20;0.10;;;;;;;;;;5450293;26;20031;-80
2024/04/16 04:52:13;;;;;;;0.20;0.10;;;;;;;;;;5444663;26;20399;-81
2024/04/16 04:54:40;;;;;;;0.20;0.10;;;;;;;;;;5444313;26;20017;-81
2024/04/16 04:57:06;;;;;;;0.20;0.10;;;;;;;;;;5463633;21;20018;-84
2024/04/16 04:59:32;;;;;;;0.20;0.10;;;;;;;;;;5433199;26;20010;-80
2024/04/16 05:01:59;;;;;;;0.20;0.10;;;;;;;;;;5465989;26;20012;-85
2024/04/16 05:04:25;;;;;;;0.20;0.10;;;;;;;;;;5469452;26;20074;-84
2024/04/16 05:06:54;;;;;;;0.20;0.00;;;;;;;;;;5430488;26;20323;-83
2024/04/16 05:09:20;;;;;;;0.20;0.10;;;;;;;;;;5433341;26;20353;-82
2024/04/16 05:11:46;;;;;;;0.20;0.10;;;;;;;;;;5432644;26;20097;-82
2024/04/16 05:14:12;;;;;;;0.20;0.10;;;;;;;;;;5461438;26;20006;-83
2024/04/16 05:16:38;;;;;;;0.20;0.10;;;;;;;;;;5435034;26;19994;-84
2024/04/16 05:19:05;;;;;;;0.20;0.10;;;;;;;;;;5465627;26;20345;-83
2024/04/16 05:21:34;;;;;;;0.20;0.00;;;;;;;;;;5460752;26;20022;-86
2024/04/16 05:24:02;;;;;;;0.20;0.10;;;;;;;;;;5435199;26;20030;-82
2024/04/16 05:26:28;;;;;;;0.28;0.10;;;;;;;;;;5465874;26;20548;-79
2024/04/16 05:28:55;;;;;;;0.20;0.00;;;;;;;;;;5471681;26;20053;-84
2024/04/16 05:31:23;;;;;;;0.20;0.00;;;;;;;;;;5470283;26;20002;-83
2024/04/16 05:33:52;;;;;;;0.20;0.10;;;;;;;;;;5465315;26;20355;-84
2024/04/16 05:36:18;;;;;;;0.20;0.10;;;;;;;;;;5466945;26;19995;-83
2024/04/16 05:38:47;;;;;;;0.20;0.10;;;;;;;;;;5432995;26;20006;-85
2024/04/16 05:41:15;;;;;;;0.20;0.10;;;;;;;;;;5470932;26;20005;-84
2024/04/16 05:43:53;;;;;;;0.20;0.10;;;;;;;;;;5469361;26;20016;-84
2024/04/16 05:46:19;;;;;;;0.20;0.10;;;;;;;;;;5426619;26;20013;-81
2024/04/16 05:48:49;;;;;;;0.50;0.30;;;;;;;;;;5470802;26;20495;-85
2024/04/16 05:51:15;;;;;;;0.20;0.10;;;;;;;;;;5428990;26;20010;-83
2024/04/16 05:53:41;;;;;;;0.20;0.10;;;;;;;;;;5437876;26;20027;-83
2024/04/16 05:56:07;;;;;;;0.20;0.10;;;;;;;;;;5466724;26;20026;-84
2024/04/16 05:58:36;;;;;;;0.20;0.10;;;;;;;;;;5439862;26;20798;-84
2024/04/16 06:01:06;;;;;;;0.20;0.10;;;;;;;;;;5471696;26;20035;-82
2024/04/16 06:03:32;;;;;;;0.20;0.10;;;;;;;;;;5447226;26;20017;-81
2024/04/16 06:05:59;;;;;;;0.20;0.05;;;;;;;;;;5445893;26;20078;-83
2024/04/16 06:08:28;;;;;;;0.20;0.00;;;;;;;;;;5443021;26;20017;-84
2024/04/16 06:10:56;;;;;;;0.20;0.10;;;;;;;;;;5469988;26;20007;-79
2024/04/16 06:13:22;;;;;;;0.20;0.10;;;;;;;;;;5439310;26;20075;-82
2024/04/16 06:15:49;;;;;;;0.20;0.10;;;;;;;;;;5476158;26;20002;-81
2024/04/16 06:18:15;;;;;;;0.20;0.10;;;;;;;;;;5441853;26;20013;-81
2024/04/16 06:20:41;;;;;;;0.20;0.10;;;;;;;;;;5438248;26;20588;-82
2024/04/16 06:23:07;;;;;;;0.20;0.10;;;;;;;;;;5449321;26;20010;-83
2024/04/16 06:25:33;;;;;;;0.20;0.10;;;;;;;;;;5440348;26;20469;-83
2024/04/16 06:27:59;;;;;;;0.20;0.10;;;;;;;;;;5466159;26;20009;-82
2024/04/16 06:30:25;;;;;;;0.20;0.10;;;;;;;;;;5469771;26;20006;-82
2024/04/16 06:32:51;;;;;;;0.20;0.00;;;;;;;;;;5462289;26;20537;-81
2024/04/16 06:35:17;;;;;;;0.20;0.10;;;;;;;;;;5442169;26;20018;-82
2024/04/16 06:37:43;;;;;;;0.20;0.10;;;;;;;;;;5462526;26;20314;-82
2024/04/16 06:40:10;;;;;;;0.20;0.10;;;;;;;;;;5473465;26;20018;-82
2024/04/16 06:42:36;;;;;;;0.20;0.00;;;;;;;;;;5473036;26;19998;-84
2024/04/16 06:45:06;;;;;;;0.20;0.00;;;;;;;;;;5460686;26;20012;-84
2024/04/16 06:47:41;;;;;;;0.20;0.10;;;;;;;;;;5458952;26;19998;-84
2024/04/16 06:50:07;;;;;;;0.20;0.10;;;;;;;;;;5464396;26;20435;-84
2024/04/16 06:52:33;;;;;;;0.20;0.00;;;;;;;;;;5469098;26;20006;-82
2024/04/16 06:54:59;;;;;;;0.20;0.00;;;;;;;;;;5472298;26;20078;-82
2024/04/16 06:57:26;;;;;;;0.20;0.10;;;;;;;;;;5475855;26;20004;-82
2024/04/16 06:59:53;;;;;;;0.20;0.10;;;;;;;;;;5441268;26;20586;-83
2024/04/16 07:02:19;;;;;;;0.20;0.10;;;;;;;;;;5434674;26;20536;-83
2024/04/16 07:04:46;;;;;;;0.20;0.10;;;;;;;;;;5472796;26;19998;-85
2024/04/16 07:07:13;;;;;;;0.20;0.10;;;;;;;;;;5458917;26;20030;-86
2024/04/16 07:09:39;;;;;;;0.25;0.10;;;;;;;;;;5475131;26;20068;-85
2024/04/16 07:12:05;;;;;;;0.20;0.10;;;;;;;;;;5441239;26;20423;-85
2024/04/16 07:14:31;;;;;;;0.20;0.10;;;;;;;;;;5476040;26;20005;-85
2024/04/16 07:16:57;;;;;;;0.20;0.10;;;;;;;;;;5439551;26;19994;-85
2024/04/16 07:19:23;;;;;;;0.20;0.00;;;;;;;;;;5439013;26;20007;-84
2024/04/16 07:21:49;;;;;;;0.20;0.10;;;;;;;;;;5446745;26;20462;-83
2024/04/16 07:24:15;;;;;;;0.20;0.10;;;;;;;;;;5437765;26;20049;-83
2024/04/16 07:26:41;;;;;;;0.20;0.10;;;;;;;;;;5450122;26;20411;-82
2024/04/16 07:29:08;;;;;;;0.20;0.08;;;;;;;;;;5471288;26;20002;-85
2024/04/16 07:31:34;;;;;;;0.20;0.10;;;;;;;;;;5485652;26;20047;-83
2024/04/16 07:34:00;;;;;;;0.20;0.10;;;;;;;;;;5481551;26;19994;-83
2024/04/16 07:36:26;;;;;;;0.20;0.10;;;;;;;;;;5459142;26;20052;-84
2024/04/16 07:38:52;;;;;;;0.20;0.10;;;;;;;;;;5460232;26;20010;-86
2024/04/16 07:41:18;;;;;;;0.20;0.00;;;;;;;;;;5476787;26;20012;-85
2024/04/16 07:43:44;;;;;;;0.20;0.00;;;;;;;;;;5442211;26;20016;-83
2024/04/16 07:46:10;;;;;;;0.20;0.10;;;;;;;;;;5444213;26;20002;-84
2024/04/16 07:48:36;;;;;;;0.20;0.00;;;;;;;;;;5497548;26;20002;-83
2024/04/16 07:51:02;;;;;;;0.20;0.08;;;;;;;;;;5443799;26;20427;-83
2024/04/16 07:53:29;;;;;;;0.20;0.00;;;;;;;;;;5448119;26;20104;-86
2024/04/16 07:55:55;;;;;;;0.20;0.10;;;;;;;;;;5471487;26;20013;-83
2024/04/16 07:58:21;;;;;;;0.20;0.00;;;;;;;;;;5442909;26;20522;-85
2024/04/16 08:00:47;;;;;;;0.20;0.10;;;;;;;;;;5472222;26;20013;-85
2024/04/16 08:03:13;;;;;;;0.20;0.10;;;;;;;;;;5448004;26;20005;-85
2024/04/16 08:05:40;;;;;;;0.20;0.10;;;;;;;;;;5437939;26;20035;-85
2024/04/16 08:08:06;;;;;;;0.20;0.10;;;;;;;;;;5467552;26;20078;-83
2024/04/16 08:10:33;;;;;;;0.20;0.05;;;;;;;;;;5475590;26;20044;-85
2024/04/16 08:12:59;;;;;;;0.20;0.10;;;;;;;;;;5439277;26;19998;-86
2024/04/16 08:15:25;;;;;;;0.20;0.10;;;;;;;;;;5431802;26;20014;-82
2024/04/16 08:17:51;;;;;;;0.20;0.03;;;;;;;;;;5472765;26;20321;-84
2024/04/16 08:20:17;;;;;;;0.20;0.10;;;;;;;;;;5434244;26;19995;-83
2024/04/16 08:22:43;;;;;;;0.20;0.10;;;;;;;;;;5461132;26;19994;-86
2024/04/16 08:25:09;;;;;;;0.20;0.10;;;;;;;;;;5468470;26;20020;-84
2024/04/16 08:27:35;;;;;;;0.20;0.00;;;;;;;;;;5471153;26;19998;-86
2024/04/16 08:30:01;;;;;;;0.20;0.10;;;;;;;;;;5441065;26;19994;-82
2024/04/16 08:32:28;;;;;;;0.20;0.10;;;;;;;;;;5465026;26;20010;-86
2024/04/16 08:34:54;;;;;;;0.20;0.10;;;;;;;;;;5442758;26;20002;-85
2024/04/16 08:37:20;;;;;;;0.20;0.10;;;;;;;;;;5475478;26;20501;-85
2024/04/16 08:39:46;;;;;;;0.20;0.10;;;;;;;;;;5440536;26;20013;-83
2024/04/16 08:42:13;;;;;;;0.85;0.55;;;;;;;;;;5432726;26;19999;-86
2024/04/16 08:44:40;;;;;;;0.20;0.00;;;;;;;;;;5464088;26;20009;-84
2024/04/16 08:47:11;;;;;;;0.20;0.10;;;;;;;;;;5441098;26;20006;-84
2024/04/16 08:49:39;;;;;;;0.20;0.00;;;;;;;;;;5438073;26;20016;-85
2024/04/16 08:52:08;;;;;;;0.20;0.10;;;;;;;;;;5439623;26;20101;-86
2024/04/16 08:54:34;;;;;;;0.20;0.10;;;;;;;;;;5438904;26;20447;-84
2024/04/16 08:57:00;;;;;;;0.20;0.10;;;;;;;;;;5429370;26;20013;-84
2024/04/16 08:59:28;;;;;;;0.20;0.10;;;;;;;;;;5438034;26;20320;-86
2024/04/16 09:01:55;;;;;;;0.20;0.10;;;;;;;;;;5434340;26;20034;-83
2024/04/16 09:04:22;;;;;;;0.20;0.00;;;;;;;;;;5426151;26;20027;-83
2024/04/16 09:06:49;;;;;;;0.20;0.00;;;;;;;;;;5466858;26;20021;-82
2024/04/16 09:09:15;;;;;;;0.20;0.00;;;;;;;;;;5425496;26;20071;-81
2024/04/16 09:11:43;;;;;;;0.20;0.10;;;;;;;;;;5473667;26;20001;-81
2024/04/16 09:14:10;;;;;;;0.20;0.08;;;;;;;;;;5431093;26;20035;-84
2024/04/16 09:16:36;;;;;;;0.20;0.10;;;;;;;;;;5464650;26;20465;-84
2024/04/16 09:19:06;;;;;;;0.20;0.10;;;;;;;;;;5426364;26;20522;-84
2024/04/16 09:21:33;;;;;;;0.20;0.10;;;;;;;;;;5464593;26;19994;-84
2024/04/16 09:24:01;;;;;;;0.20;0.00;;;;;;;;;;5447109;26;20374;-83
2024/04/16 09:26:27;;;;;;;0.20;0.00;;;;;;;;;;5473265;26;20074;-82
2024/04/16 09:28:53;;;;;;;0.20;0.10;;;;;;;;;;5445312;26;20346;-81
2024/04/16 09:31:19;;;;;;;0.20;0.03;;;;;;;;;;5468058;26;20327;-85
2024/04/16 09:33:46;;;;;;;0.20;0.10;;;;;;;;;;5480102;26;20012;-83
2024/04/16 09:36:13;;;;;;;0.20;0.10;;;;;;;;;;5439662;26;20499;-80
2024/04/16 09:38:43;;;;;;;0.20;0.00;;;;;;;;;;5435688;26;20561;-81
2024/04/16 09:41:13;;;;;;;0.20;0.10;;;;;;;;;;5466326;26;19999;-83
2024/04/16 09:43:42;;;;;;;0.20;0.10;;;;;;;;;;5445581;26;20075;-79
2024/04/16 09:46:12;;;;;;;0.20;0.00;;;;;;;;;;5472751;26;19998;-85
2024/04/16 09:48:41;;;;;;;0.20;0.10;;;;;;;;;;5439340;26;20003;-80
2024/04/16 09:51:08;;;;;;;0.20;0.10;;;;;;;;;;5449555;26;19998;-82
2024/04/16 09:53:37;;;;;;;0.20;0.10;;;;;;;;;;5479010;26;20002;-80
2024/04/16 09:56:08;;;;;;;0.20;0.03;;;;;;;;;;5450513;26;19994;-81
2024/04/16 09:58:35;;;;;;;0.20;0.10;;;;;;;;;;5474231;26;20319;-83
2024/04/16 10:01:01;;;;;;;0.20;0.10;;;;;;;;;;5435959;26;19998;-80
2024/04/16 10:03:28;;;;;;;0.20;0.10;;;;;;;;;;5434374;26;20006;-81
2024/04/16 10:05:54;;;;;;;0.20;0.03;;;;;;;;;;5443153;26;20035;-82
2024/04/16 10:08:25;;;;;;;0.20;0.10;;;;;;;;;;5464874;26;20015;-82
2024/04/16 10:10:52;;;;;;;0.20;0.00;;;;;;;;;;5437096;26;20461;-80
2024/04/16 10:13:18;;;;;;;0.20;0.10;;;;;;;;;;5470191;26;20404;-81
2024/04/16 10:15:45;;;;;;;0.20;0.00;;;;;;;;;;5466934;26;19998;-82
2024/04/16 10:18:14;;;;;;;0.20;0.10;;;;;;;;;;5436142;26;20027;-81
2024/04/16 10:20:56;;;;;;;0.20;0.10;;;;;;;;;;5437078;26;20018;-81
2024/04/16 10:23:22;;;;;;;0.20;0.10;;;;;;;;;;5468952;26;20059;-79
2024/04/16 10:25:49;;;;;;;0.20;0.10;;;;;;;;;;5440473;26;20002;-80
2024/04/16 10:28:23;;;;;;;0.20;0.00;;;;;;;;;;5439809;26;19994;-81
2024/04/16 10:30:57;;;;;;;0.20;0.10;;;;;;;;;;5474268;26;20069;-84
2024/04/16 10:33:27;;;;;;;0.20;0.10;;;;;;;;;;5437429;26;20472;-80
2024/04/16 10:35:56;;;;;;;0.20;0.00;;;;;;;;;;5439055;26;19995;-80
2024/04/16 10:38:26;;;;;;;0.20;0.00;;;;;;;;;;5438711;26;20055;-81
2024/04/16 10:40:59;;;;;;;0.20;0.10;;;;;;;;;;5437945;26;20009;-81
2024/04/16 10:43:25;;;;;;;0.20;0.10;;;;;;;;;;5449013;26;19994;-82
2024/04/16 10:45:52;;;;;;;0.20;0.10;;;;;;;;;;5440031;26;20058;-82
2024/04/16 10:48:19;;;;;;;0.20;0.10;;;;;;;;;;5438887;26;20012;-80
2024/04/16 10:50:45;;;;;;;0.20;0.10;;;;;;;;;;5473411;26;19999;-82
2024/04/16 10:53:13;;;;;;;0.20;0.00;;;;;;;;;;5473076;26;20008;-81
2024/04/16 10:55:40;;;;;;;0.20;0.00;;;;;;;;;;5472159;26;20015;-81
2024/04/16 10:58:08;;;;;;;0.20;0.00;;;;;;;;;;5453555;20;20014;-82
2024/04/16 11:00:34;;;;;;;0.20;0.00;;;;;;;;;;5407305;26;20003;-81
2024/04/16 11:03:01;;;;;;;0.20;0.10;;;;;;;;;;5442626;26;20014;-82
2024/04/16 11:05:27;;;;;;;0.20;0.10;;;;;;;;;;5440195;26;20000;-81
2024/04/16 11:07:54;;;;;;;0.20;0.10;;;;;;;;;;5417432;26;20014;-81
2024/04/16 11:10:20;;;;;;;0.20;0.00;;;;;;;;;;5400147;26;20103;-80
2024/04/16 11:12:47;;;;;;;0.20;0.00;;;;;;;;;;5378043;26;20431;-80
2024/04/16 11:15:13;;;;;;;0.20;0.10;;;;;;;;;;5391485;26;20452;-80
2024/04/16 11:17:39;;;;;;;0.20;0.00;;;;;;;;;;5407553;26;20015;-77
2024/04/16 11:20:08;;;;;;;0.20;0.10;;;;;;;;;;5395119;26;20020;-77
2024/04/16 11:22:34;;;;;;;0.20;0.10;;;;;;;;;;5405476;26;20046;-77
2024/04/16 11:25:00;;;;;;;0.20;0.10;;;;;;;;;;5401727;26;20015;-79
2024/04/16 11:27:26;;;;;;;0.20;0.00;;;;;;;;;;5410690;26;20008;-81
2024/04/16 11:29:52;;;;;;;0.20;0.00;;;;;;;;;;5398904;26;20090;-80
2024/04/16 11:32:19;;;;;;;0.20;0.00;;;;;;;;;;5400925;26;20498;-79
2024/04/16 11:34:46;;;;;;;0.20;0.05;;;;;;;;;;5403985;26;20000;-79
2024/04/16 11:37:17;;;;;;;0.20;0.10;;;;;;;;;;5418652;26;20024;-79
2024/04/16 11:39:43;;;;;;;0.20;0.10;;;;;;;;;;5399098;26;20019;-81
2024/04/16 11:42:10;;;;;;;0.20;0.10;;;;;;;;;;5409811;26;20024;-77
2024/04/16 11:44:40;;;;;;;0.20;0.20;;;;;;;;;;5376182;26;20000;-80
2024/04/16 11:47:08;;;;;;;0.20;0.10;;;;;;;;;;5376442;26;19996;-78
2024/04/16 11:49:35;;;;;;;0.20;0.10;;;;;;;;;;5402555;26;20003;-81
2024/04/16 11:52:06;;;;;;;0.20;0.00;;;;;;;;;;5403362;26;20007;-80
2024/04/16 11:54:34;;;;;;;0.20;0.00;;;;;;;;;;5411269;26;20430;-79
2024/04/16 11:57:02;;;;;;;0.20;0.10;;;;;;;;;;5379293;26;20351;-79
2024/04/16 11:59:28;;;;;;;0.20;0.00;;;;;;;;;;5355979;26;20072;-79
2024/04/16 12:01:55;;;;;;;0.20;0.10;;;;;;;;;;5401433;26;20002;-80
2024/04/16 12:04:21;;;;;;;0.20;0.00;;;;;;;;;;5375103;26;19995;-79
2024/04/16 12:06:47;;;;;;;0.20;0.10;;;;;;;;;;5403853;26;20008;-79
2024/04/16 12:09:13;;;;;;;0.20;0.00;;;;;;;;;;5394788;26;20004;-78
2024/04/16 12:11:42;;;;;;;0.20;0.00;;;;;;;;;;5400995;26;20031;-80
2024/04/16 12:14:08;;;;;;;0.20;0.00;;;;;;;;;;5403245;26;20000;-79
2024/04/16 12:16:37;;;;;;;0.20;0.00;;;;;;;;;;5408323;26;20003;-80
2024/04/16 12:19:04;;;;;;;0.20;0.03;;;;;;;;;;5393237;26;20018;-80
2024/04/16 12:21:30;;;;;;;0.20;0.10;;;;;;;;;;5364417;26;20011;-79
2024/04/16 12:23:56;;;;;;;0.20;0.10;;;;;;;;;;5377111;26;19999;-80
2024/04/16 12:26:22;;;;;;;0.20;0.10;;;;;;;;;;5387662;26;20015;-79
2024/04/16 12:28:49;;;;;;;0.20;0.00;;;;;;;;;;5397727;26;20037;-77
2024/04/16 12:31:16;;;;;;;0.20;0.00;;;;;;;;;;5390912;26;20008;-80
2024/04/16 12:33:42;;;;;;;0.20;0.10;;;;;;;;;;5395969;26;20008;-79
2024/04/16 12:36:09;;;;;;;0.20;0.10;;;;;;;;;;5402919;26;20491;-78
2024/04/16 12:38:36;;;;;;;0.20;0.00;;;;;;;;;;5392076;26;20003;-79
2024/04/16 12:41:03;;;;;;;0.20;0.00;;;;;;;;;;5392929;26;20011;-78
2024/04/16 12:43:29;;;;;;;0.20;0.10;;;;;;;;;;5398988;26;20016;-80
2024/04/16 12:45:59;;;;;;;0.20;0.10;;;;;;;;;;5401517;26;20069;-78
2024/04/16 12:48:26;;;;;;;0.20;0.10;;;;;;;;;;5396008;26;20029;-78
2024/04/16 12:50:52;;;;;;;0.20;0.10;;;;;;;;;;5403179;26;19996;-78
2024/04/16 12:53:19;;;;;;;0.20;0.00;;;;;;;;;;5395170;26;20472;-80
2024/04/16 12:55:45;;;;;;;0.20;0.00;;;;;;;;;;5399064;26;20462;-78
2024/04/16 12:58:11;;;;;;;0.20;0.00;;;;;;;;;;5399833;26;20015;-79
2024/04/16 13:00:37;;;;;;;0.20;0.10;;;;;;;;;;5410519;26;19996;-80
2024/04/16 13:03:03;;;;;;;0.20;0.00;;;;;;;;;;5396015;26;20012;-79
2024/04/16 13:05:30;;;;;;;0.20;0.10;;;;;;;;;;5399905;26;20006;-78
2024/04/16 13:07:56;;;;;;;0.20;0.10;;;;;;;;;;5395017;26;20000;-81
2024/04/16 13:10:22;;;;;;;0.20;0.00;;;;;;;;;;5368155;26;20340;-78
2024/04/16 13:12:49;;;;;;;0.20;0.10;;;;;;;;;;5403504;26;20329;-79
2024/04/16 13:15:15;;;;;;;0.20;0.00;;;;;;;;;;5396721;26;20014;-81
2024/04/16 13:17:41;;;;;;;0.20;0.00;;;;;;;;;;5408041;26;20006;-79
2024/04/16 13:20:09;;;;;;;0.20;0.10;;;;;;;;;;5407908;26;20091;-81
2024/04/16 13:22:35;;;;;;;0.20;0.00;;;;;;;;;;5404754;26;20043;-83
2024/04/16 13:25:01;;;;;;;0.20;0.10;;;;;;;;;;5401296;26;20089;-83
2024/04/16 13:27:27;;;;;;;0.20;0.00;;;;;;;;;;5398779;26;20406;-81
2024/04/16 13:29:53;;;;;;;0.20;0.00;;;;;;;;;;5404021;26;20015;-81
2024/04/16 13:32:20;;;;;;;0.20;0.00;;;;;;;;;;5387948;26;20012;-81
2024/04/16 13:34:46;;;;;;;0.20;0.00;;;;;;;;;;5394184;26;20036;-81
2024/04/16 13:37:13;;;;;;;0.20;0.10;;;;;;;;;;5390929;26;20000;-81
2024/04/16 13:39:39;;;;;;;0.20;0.00;;;;;;;;;;5397642;26;20014;-81
2024/04/16 13:42:05;;;;;;;0.20;0.00;;;;;;;;;;5368852;26;20054;-81
2024/04/16 13:44:32;;;;;;;0.20;0.10;;;;;;;;;;5389555;26;20014;-79
2024/04/16 13:46:58;;;;;;;0.20;0.00;;;;;;;;;;5399712;26;20011;-80
2024/04/16 13:49:24;;;;;;;0.20;0.10;;;;;;;;;;5389884;26;20045;-81
2024/04/16 13:51:50;;;;;;;0.20;0.10;;;;;;;;;;5397868;26;20013;-81
2024/04/16 13:54:16;;;;;;;0.20;0.00;;;;;;;;;;5388587;26;20046;-81
2024/04/16 13:56:42;;;;;;;0.20;0.00;;;;;;;;;;5391106;26;20339;-79
2024/04/16 13:59:08;;;;;;;0.20;0.10;;;;;;;;;;5373857;26;20010;-79
2024/04/16 14:01:34;;;;;;;0.20;0.10;;;;;;;;;;5394469;26;20012;-79
2024/04/16 14:04:01;;;;;;;0.20;0.10;;;;;;;;;;5396992;26;20005;-80
2024/04/16 14:06:27;;;;;;;0.20;0.10;;;;;;;;;;5395764;26;20008;-80
2024/04/16 14:08:53;;;;;;;0.20;0.10;;;;;;;;;;5389177;26;19996;-80
2024/04/16 14:11:19;;;;;;;0.20;0.10;;;;;;;;;;5400711;26;19996;-79
2024/04/16 14:13:46;;;;;;;0.20;0.10;;;;;;;;;;5393711;26;20346;-79
2024/04/16 14:16:12;;;;;;;0.20;0.00;;;;;;;;;;5386885;26;19996;-78
2024/04/16 14:18:38;;;;;;;0.20;0.10;;;;;;;;;;5389514;26;20010;-79
2024/04/16 14:21:04;;;;;;;0.20;0.10;;;;;;;;;;5394772;26;20457;-81
2024/04/16 14:23:32;;;;;;;0.20;0.10;;;;;;;;;;5388598;26;19996;-79
2024/04/16 14:25:58;;;;;;;0.20;0.00;;;;;;;;;;5387594;26;20060;-79
2024/04/16 14:28:24;;;;;;;0.20;0.00;;;;;;;;;;5402049;26;22268;-81
2024/04/16 14:30:51;;;;;;;0.20;0.10;;;;;;;;;;5391943;26;20003;-80
2024/04/16 14:33:17;;;;;;;0.20;0.10;;;;;;;;;;5385415;26;20094;-79
2024/04/16 14:35:43;;;;;;;0.20;0.10;;;;;;;;;;5389947;26;20068;-78
2024/04/16 14:38:09;;;;;;;0.20;0.10;;;;;;;;;;5393559;26;20019;-80
2024/04/16 14:40:36;;;;;;;0.20;0.10;;;;;;;;;;5391940;26;20000;-77
2024/04/16 14:43:02;;;;;;;0.20;0.10;;;;;;;;;;5397659;26;19996;-78